Time;durP1;ratioP1;P1;durP2;ratioP2;P2;SDS_P1;SDS_P2;PMS_P1;PMS_P2;Temp;Humidity;BMP_temperature;BMP_pressure;BME280_temperature;BME280_humidity;BME280_pressure;Samples;Min_cycle;Max_cycle;Signal;HPM_P1;HPM_P2
2021/05/06 04:53:28;;;;;;;5.78;2.00;;;;;;;;;;6322910;22;20049;-81
2021/05/06 04:56:07;;;;;;;7.20;2.70;;;;;;;;;;6311662;22;20033;-81
2021/05/06 05:06:33;;;;;;;6.15;2.15;;;;;;;;;;6289914;22;20011;-80
2021/05/06 05:24:42;;;;;;;7.43;3.40;;;;;;;;;;5108661;28;20032;-78
2021/05/06 05:27:11;;;;;;;13.63;3.05;;;;;;;;;;5097038;28;20024;-79
2021/05/06 05:29:37;;;;;;;7.07;2.05;;;;;;;;;;5097325;28;20108;-79
2021/05/06 05:34:29;;;;;;;4.50;1.77;;;;;;;;;;5115852;27;20883;-78
2021/05/06 05:36:56;;;;;;;5.50;2.45;;;;;;;;;;5095353;28;20059;-78
2021/05/06 05:42:06;;;;;;;5.80;1.92;;;;;;;;;;5098972;28;20020;-79
2021/05/06 05:55:14;;;;;;;15.93;7.90;;;;;;;;;;5102658;28;20042;-80
2021/05/06 05:57:39;;;;;;;9.82;4.47;;;;;;;;;;5099747;28;20223;-79
2021/05/06 06:00:05;;;;;;;6.65;3.28;;;;;;;;;;5098706;28;20443;-80
2021/05/06 06:02:33;;;;;;;5.30;2.60;;;;;;;;;;5105756;28;20422;-80
2021/05/06 06:04:58;;;;;;;5.10;2.85;;;;;;;;;;5098294;28;19916;-79
2021/05/06 06:07:24;;;;;;;7.55;2.45;;;;;;;;;;5106553;28;20039;-80
2021/05/06 06:09:50;;;;;;;6.45;2.85;;;;;;;;;;5093518;28;20024;-80
2021/05/06 06:12:15;;;;;;;4.55;1.98;;;;;;;;;;5098503;28;20107;-80
2021/05/06 06:14:50;;;;;;;8.48;1.88;;;;;;;;;;5104926;28;20024;-79
2021/05/06 06:17:16;;;;;;;4.30;2.08;;;;;;;;;;5094379;28;20024;-80
2021/05/06 06:19:47;;;;;;;5.22;2.70;;;;;;;;;;5105545;28;20027;-80
2021/05/06 06:22:14;;;;;;;;;;;;;;;;;;5099221;28;20464;-80
2021/05/06 06:24:40;;;;;;;6.53;1.60;;;;;;;;;;5107302;28;19916;-80
2021/05/06 06:27:06;;;;;;;6.07;1.95;;;;;;;;;;5093273;28;20390;-79
2021/05/06 06:29:34;;;;;;;6.63;2.13;;;;;;;;;;5100312;28;20031;-79
2021/05/06 06:32:02;;;;;;;5.13;1.90;;;;;;;;;;5101457;28;20036;-80
2021/05/06 06:34:27;;;;;;;5.78;2.13;;;;;;;;;;5097759;28;20020;-79
2021/05/06 06:36:53;;;;;;;5.60;2.30;;;;;;;;;;5103194;28;20035;-80
2021/05/06 06:39:19;;;;;;;5.50;1.73;;;;;;;;;;5098531;28;20028;-80
2021/05/06 06:41:45;;;;;;;5.97;1.92;;;;;;;;;;5106525;28;20032;-80
2021/05/06 06:44:13;;;;;;;6.75;1.75;;;;;;;;;;5093717;28;20083;-79
2021/05/06 06:46:39;;;;;;;6.05;2.05;;;;;;;;;;5086580;28;20028;-79
2021/05/06 06:49:05;;;;;;;4.93;2.08;;;;;;;;;;5088264;28;20032;-79
2021/05/06 06:51:31;;;;;;;7.85;2.70;;;;;;;;;;5086309;28;20090;-80
2021/05/06 06:53:56;;;;;;;10.73;2.08;;;;;;;;;;5090394;28;20016;-80
2021/05/06 06:56:22;;;;;;;5.03;1.75;;;;;;;;;;5085242;28;20466;-80
2021/05/06 06:58:52;;;;;;;6.20;2.58;;;;;;;;;;5088694;28;20048;-79
2021/05/06 07:01:18;;;;;;;5.22;1.90;;;;;;;;;;5085551;28;20498;-79
2021/05/06 07:03:44;;;;;;;6.57;2.97;;;;;;;;;;5084323;28;20028;-78
2021/05/06 07:06:11;;;;;;;7.65;3.15;;;;;;;;;;5088168;28;20027;-80
2021/05/06 07:08:39;;;;;;;5.60;2.40;;;;;;;;;;5087822;28;20103;-79
2021/05/06 07:11:05;;;;;;;7.88;3.17;;;;;;;;;;5088356;28;20067;-78
2021/05/06 07:13:31;;;;;;;5.55;2.20;;;;;;;;;;5079605;28;20020;-78
2021/05/06 07:15:59;;;;;;;9.20;2.60;;;;;;;;;;5087783;28;20031;-78
2021/05/06 07:18:25;;;;;;;4.75;2.65;;;;;;;;;;5086803;28;20531;-79
2021/05/06 07:20:51;;;;;;;8.43;2.70;;;;;;;;;;5086308;28;20066;-79
2021/05/06 07:23:18;;;;;;;5.28;2.40;;;;;;;;;;5088191;28;20031;-79
2021/05/06 07:25:44;;;;;;;7.85;2.90;;;;;;;;;;5087749;28;20479;-80
2021/05/06 07:28:15;;;;;;;5.47;2.40;;;;;;;;;;5087897;28;20045;-79
2021/05/06 07:30:41;;;;;;;7.82;2.83;;;;;;;;;;5086147;28;20746;-80
2021/05/06 07:33:06;;;;;;;6.70;2.70;;;;;;;;;;5085847;28;20047;-79
2021/05/06 07:35:32;;;;;;;5.60;2.80;;;;;;;;;;5086451;28;20084;-79
2021/05/06 07:37:58;;;;;;;5.00;2.40;;;;;;;;;;5087173;28;20114;-80
2021/05/06 07:42:43;;;;;;;9.80;3.20;;;;;;;;;;5108890;27;20347;-79
2021/05/06 07:45:09;;;;;;;6.82;2.00;;;;;;;;;;5106695;28;20085;-78
2021/05/06 07:49:52;;;;;;;5.38;3.00;;;;;;;;;;5115824;27;20353;-79
2021/05/06 07:52:19;;;;;;;5.50;2.80;;;;;;;;;;5115614;28;20106;-79
2021/05/06 07:54:46;;;;;;;9.77;3.10;;;;;;;;;;5108770;28;20020;-80
2021/05/06 07:57:12;;;;;;;6.00;2.72;;;;;;;;;;5119420;27;20094;-80
2021/05/06 07:59:37;;;;;;;7.47;3.70;;;;;;;;;;5119433;28;20037;-79
2021/05/06 08:02:05;;;;;;;10.15;3.20;;;;;;;;;;5124014;28;20622;-79
2021/05/06 08:04:30;;;;;;;5.90;2.42;;;;;;;;;;5118374;27;20102;-79
2021/05/06 08:06:56;;;;;;;5.43;2.47;;;;;;;;;;5118504;28;20442;-78
2021/05/06 08:09:22;;;;;;;6.18;2.63;;;;;;;;;;5120293;27;20451;-80
2021/05/06 08:11:51;;;;;;;11.32;3.22;;;;;;;;;;5111121;28;20016;-79
2021/05/06 08:14:17;;;;;;;5.32;2.50;;;;;;;;;;5119886;28;20024;-79
2021/05/06 08:16:42;;;;;;;9.77;2.97;;;;;;;;;;5113319;28;20051;-80
2021/05/06 08:19:08;;;;;;;4.55;2.78;;;;;;;;;;5119305;28;20148;-79
2021/05/06 08:21:33;;;;;;;5.80;2.28;;;;;;;;;;5117077;27;20083;-80
2021/05/06 08:23:59;;;;;;;5.53;2.35;;;;;;;;;;5118109;28;20031;-79
2021/05/06 08:26:27;;;;;;;6.05;2.63;;;;;;;;;;5119298;27;20038;-78
2021/05/06 08:28:53;;;;;;;4.68;2.60;;;;;;;;;;5110375;28;19969;-79
2021/05/06 08:31:18;;;;;;;6.63;2.58;;;;;;;;;;5120381;28;20019;-79
2021/05/06 08:33:44;;;;;;;6.93;2.50;;;;;;;;;;5109089;28;20473;-80
2021/05/06 08:36:10;;;;;;;7.70;2.63;;;;;;;;;;5119264;28;20098;-80
2021/05/06 08:38:36;;;;;;;6.70;2.38;;;;;;;;;;5116978;27;20037;-80
2021/05/06 08:41:02;;;;;;;5.03;2.30;;;;;;;;;;5102496;28;20019;-79
2021/05/06 08:43:31;;;;;;;6.93;2.72;;;;;;;;;;5119151;27;20724;-79
2021/05/06 08:45:58;;;;;;;6.68;2.90;;;;;;;;;;5107275;28;20030;-79
2021/05/06 08:48:24;;;;;;;4.43;2.55;;;;;;;;;;5120864;28;20027;-79
2021/05/06 08:50:50;;;;;;;6.70;2.60;;;;;;;;;;5111800;28;20036;-79
2021/05/06 08:53:17;;;;;;;7.15;2.97;;;;;;;;;;5119748;28;20398;-79
2021/05/06 08:55:44;;;;;;;10.07;3.80;;;;;;;;;;5114556;28;20026;-79
2021/05/06 08:58:09;;;;;;;9.73;2.90;;;;;;;;;;5115658;28;20089;-79
2021/05/06 09:00:35;;;;;;;8.70;3.22;;;;;;;;;;5104492;28;20021;-80
2021/05/06 09:03:01;;;;;;;9.02;3.15;;;;;;;;;;5108651;28;20028;-79
2021/05/06 09:05:26;;;;;;;5.30;2.55;;;;;;;;;;5097525;28;20034;-79
2021/05/06 09:07:52;;;;;;;5.10;2.72;;;;;;;;;;5112290;28;20038;-79
2021/05/06 09:10:37;;;;;;;7.03;2.80;;;;;;;;;;5099808;28;20079;-79
2021/05/06 09:13:04;;;;;;;11.75;4.28;;;;;;;;;;5089902;28;20011;-79
2021/05/06 09:15:30;;;;;;;9.57;3.72;;;;;;;;;;5099735;28;20050;-78
2021/05/06 09:17:55;;;;;;;11.80;4.20;;;;;;;;;;5101297;28;20437;-79
2021/05/06 09:20:25;;;;;;;9.93;4.25;;;;;;;;;;5103795;28;20027;-80
2021/05/06 09:22:52;;;;;;;7.20;4.22;;;;;;;;;;5102516;28;20016;-80
2021/05/06 09:25:24;;;;;;;11.20;3.50;;;;;;;;;;5105835;27;20095;-80
2021/05/06 09:28:07;;;;;;;10.17;3.27;;;;;;;;;;5094450;28;20031;-79
2021/05/06 09:30:33;;;;;;;8.75;3.78;;;;;;;;;;5097037;28;20028;-80
2021/05/06 09:33:00;;;;;;;10.23;3.70;;;;;;;;;;5102489;28;20089;-79
2021/05/06 09:35:26;;;;;;;8.82;3.17;;;;;;;;;;5106182;28;20050;-79
2021/05/06 09:37:52;;;;;;;15.70;3.65;;;;;;;;;;5105043;28;20094;-80
2021/05/06 09:40:18;;;;;;;10.70;5.22;;;;;;;;;;5086088;28;20025;-79
2021/05/06 09:42:47;;;;;;;13.52;4.82;;;;;;;;;;5105646;28;20016;-79
2021/05/06 09:45:20;;;;;;;7.50;3.67;;;;;;;;;;5102209;28;20019;-78
2021/05/06 09:47:45;;;;;;;7.47;3.10;;;;;;;;;;5095943;28;20035;-80
2021/05/06 09:50:24;;;;;;;8.73;3.38;;;;;;;;;;5103536;28;20028;-79
2021/05/06 09:52:56;;;;;;;6.85;2.97;;;;;;;;;;5097658;28;20087;-79
2021/05/06 09:55:22;;;;;;;9.77;3.13;;;;;;;;;;5104014;28;20019;-78
2021/05/06 09:57:48;;;;;;;11.23;2.95;;;;;;;;;;5100171;28;20023;-79
2021/05/06 10:00:15;;;;;;;6.30;2.67;;;;;;;;;;5093294;28;20028;-80
2021/05/06 10:02:42;;;;;;;12.40;3.63;;;;;;;;;;5110630;28;20474;-79
2021/05/06 10:05:09;;;;;;;8.38;3.58;;;;;;;;;;5099275;28;20503;-78
2021/05/06 10:07:36;;;;;;;6.80;2.58;;;;;;;;;;5112379;28;20032;-79
2021/05/06 10:10:04;;;;;;;6.28;3.33;;;;;;;;;;5098118;28;20480;-78
2021/05/06 10:12:31;;;;;;;7.22;2.50;;;;;;;;;;5099210;28;20024;-78
2021/05/06 10:14:57;;;;;;;8.57;2.58;;;;;;;;;;5102320;28;20028;-78
2021/05/06 10:17:23;;;;;;;5.57;2.40;;;;;;;;;;5091597;28;20025;-78
2021/05/06 10:19:49;;;;;;;6.35;3.08;;;;;;;;;;5107215;28;20341;-79
2021/05/06 10:22:16;;;;;;;6.20;2.65;;;;;;;;;;5093147;28;20017;-79
2021/05/06 10:24:45;;;;;;;7.57;3.17;;;;;;;;;;5107846;28;20456;-78
2021/05/06 10:27:12;;;;;;;4.28;2.30;;;;;;;;;;5094429;28;20021;-79
2021/05/06 10:29:39;;;;;;;6.93;2.63;;;;;;;;;;5095569;28;20044;-78
2021/05/06 10:32:06;;;;;;;10.88;3.70;;;;;;;;;;5099703;28;20032;-78
2021/05/06 10:34:33;;;;;;;8.93;2.58;;;;;;;;;;5094873;28;20017;-79
2021/05/06 10:36:59;;;;;;;6.55;2.65;;;;;;;;;;5105110;28;20491;-79
2021/05/06 10:39:35;;;;;;;7.60;3.33;;;;;;;;;;5093932;28;20040;-78
2021/05/06 10:42:21;;;;;;;5.13;2.67;;;;;;;;;;5108972;27;20016;-80
2021/05/06 10:44:46;;;;;;;6.97;2.35;;;;;;;;;;5089517;28;20027;-79
2021/05/06 10:47:14;;;;;;;10.82;3.22;;;;;;;;;;5096670;28;20045;-79
2021/05/06 10:49:40;;;;;;;7.25;2.88;;;;;;;;;;5098172;28;20027;-80
2021/05/06 10:52:07;;;;;;;7.53;3.13;;;;;;;;;;5098841;27;20093;-80
2021/05/06 10:54:40;;;;;;;8.45;3.05;;;;;;;;;;5099664;28;20044;-79
2021/05/06 10:57:12;;;;;;;8.88;3.22;;;;;;;;;;5101002;28;20106;-80
2021/05/06 10:59:39;;;;;;;10.90;2.95;;;;;;;;;;5096871;28;20019;-79
2021/05/06 11:02:05;;;;;;;9.13;3.15;;;;;;;;;;5096485;28;20062;-80
2021/05/06 11:06:49;;;;;;;8.40;2.80;;;;;;;;;;5051870;27;20379;-77
2021/05/06 11:09:32;;;;;;;8.30;3.30;;;;;;;;;;5043779;28;20085;-78
2021/05/06 11:12:13;;;;;;;9.20;3.53;;;;;;;;;;5041252;28;20044;-79
2021/05/06 11:15:03;;;;;;;4.55;2.65;;;;;;;;;;5040124;28;20688;-78
2021/05/06 11:17:35;;;;;;;5.78;2.55;;;;;;;;;;5042276;28;20053;-78
2021/05/06 11:20:00;;;;;;;6.72;2.78;;;;;;;;;;5045775;28;20362;-79
2021/05/06 11:22:52;;;;;;;8.27;2.85;;;;;;;;;;5044184;28;20191;-78
2021/05/06 11:25:18;;;;;;;;;;;;;;;;;;5059610;28;20051;-78
2021/05/06 11:27:43;;;;;;;7.25;2.50;;;;;;;;;;5070048;28;19915;-77
2021/05/06 11:30:41;;;;;;;6.10;2.47;;;;;;;;;;5041110;28;20021;-78
2021/05/06 11:33:16;;;;;;;5.70;3.42;;;;;;;;;;5062280;27;20039;-79
2021/05/06 11:36:05;;;;;;;7.32;3.33;;;;;;;;;;5058920;28;20026;-79
2021/05/06 11:38:37;;;;;;;6.50;2.88;;;;;;;;;;5036953;28;20021;-79
2021/05/06 11:41:04;;;;;;;6.50;2.50;;;;;;;;;;5036156;28;20104;-78
2021/05/06 11:43:30;;;;;;;9.40;2.72;;;;;;;;;;5038326;28;20056;-78
2021/05/06 11:46:05;;;;;;;7.53;1.98;;;;;;;;;;5039264;28;20022;-79
2021/05/06 11:48:38;;;;;;;6.40;3.15;;;;;;;;;;5042109;28;20045;-78
2021/05/06 11:51:04;;;;;;;8.02;2.40;;;;;;;;;;5044655;28;20021;-78
2021/05/06 11:53:30;;;;;;;6.90;2.42;;;;;;;;;;5048198;28;20014;-78
2021/05/06 11:55:56;;;;;;;3.60;1.95;;;;;;;;;;5043746;28;20522;-78
2021/05/06 11:58:25;;;;;;;6.82;1.42;;;;;;;;;;5044480;28;20151;-79
2021/05/06 12:00:54;;;;;;;4.85;1.88;;;;;;;;;;5044716;28;20048;-77
2021/05/06 12:03:19;;;;;;;4.55;1.80;;;;;;;;;;5043916;28;20028;-77
2021/05/06 12:05:48;;;;;;;3.70;1.60;;;;;;;;;;5044618;28;20385;-78
2021/05/06 12:08:14;;;;;;;3.67;1.88;;;;;;;;;;5045180;28;20041;-79
2021/05/06 12:10:40;;;;;;;2.95;1.25;;;;;;;;;;5044751;28;20368;-78
2021/05/06 12:13:06;;;;;;;3.70;1.30;;;;;;;;;;5044022;28;20495;-78
2021/05/06 12:15:31;;;;;;;5.18;2.20;;;;;;;;;;5040852;28;20041;-77
2021/05/06 12:18:13;;;;;;;2.95;1.45;;;;;;;;;;5022308;28;20460;-77
2021/05/06 12:20:48;;;;;;;4.10;1.60;;;;;;;;;;5034320;28;20024;-77
2021/05/06 12:23:14;;;;;;;3.33;1.60;;;;;;;;;;5029905;28;20021;-78
2021/05/06 12:25:40;;;;;;;2.53;1.02;;;;;;;;;;5035125;28;20361;-78
2021/05/06 12:28:06;;;;;;;3.40;1.40;;;;;;;;;;5034653;28;20034;-77
2021/05/06 12:30:31;;;;;;;3.10;1.30;;;;;;;;;;5025646;28;20034;-77
2021/05/06 12:35:16;;;;;;;5.97;1.48;;;;;;;;;;5107882;27;20370;-78
2021/05/06 12:37:44;;;;;;;2.80;1.25;;;;;;;;;;5087884;28;20032;-77
2021/05/06 12:40:10;;;;;;;4.28;1.20;;;;;;;;;;5087221;28;20029;-78
2021/05/06 12:42:37;;;;;;;3.03;1.30;;;;;;;;;;5086519;28;20041;-77
2021/05/06 12:45:23;;;;;;;4.43;1.10;;;;;;;;;;5084645;28;20473;-77
2021/05/06 12:47:49;;;;;;;1.30;0.65;;;;;;;;;;5082246;28;20028;-78
2021/05/06 12:50:15;;;;;;;4.40;0.95;;;;;;;;;;5075805;28;20028;-78
2021/05/06 12:52:45;;;;;;;2.70;1.00;;;;;;;;;;5087937;28;20038;-78
2021/05/06 12:55:23;;;;;;;2.20;0.90;;;;;;;;;;5077791;28;20016;-78
2021/05/06 12:58:07;;;;;;;2.45;1.20;;;;;;;;;;5073124;28;20033;-78
2021/05/06 13:00:34;;;;;;;2.30;1.10;;;;;;;;;;5079886;28;20127;-78
2021/05/06 13:05:30;;;;;;;3.35;1.10;;;;;;;;;;5073622;27;20928;-78
2021/05/06 13:07:56;;;;;;;2.60;1.20;;;;;;;;;;5024000;28;20022;-78
2021/05/06 13:10:32;;;;;;;2.97;1.27;;;;;;;;;;5034466;28;20044;-80
2021/05/06 13:12:58;;;;;;;2.20;1.02;;;;;;;;;;5037317;28;20026;-78
2021/05/06 13:15:24;;;;;;;4.72;1.60;;;;;;;;;;5029174;28;20064;-78
2021/05/06 13:17:49;;;;;;;3.72;2.10;;;;;;;;;;5030065;28;20056;-79
2021/05/06 13:20:15;;;;;;;4.90;2.20;;;;;;;;;;5030517;28;20377;-78
2021/05/06 13:22:41;;;;;;;5.07;2.40;;;;;;;;;;5029511;28;20026;-78
2021/05/06 13:25:07;;;;;;;13.82;6.15;;;;;;;;;;5029372;28;20046;-78
2021/05/06 13:27:33;;;;;;;5.57;2.70;;;;;;;;;;5027292;28;20120;-78
2021/05/06 13:30:00;;;;;;;5.68;2.03;;;;;;;;;;5028391;28;20369;-79
2021/05/06 13:32:35;;;;;;;5.25;1.58;;;;;;;;;;5031777;28;20024;-78
2021/05/06 13:35:02;;;;;;;5.90;2.30;;;;;;;;;;5027074;28;20036;-78
2021/05/06 13:37:35;;;;;;;3.70;1.92;;;;;;;;;;5029131;28;20044;-78
2021/05/06 13:40:00;;;;;;;3.08;1.48;;;;;;;;;;5027974;28;20039;-79
2021/05/06 13:42:26;;;;;;;5.63;1.50;;;;;;;;;;5029350;28;20445;-78
2021/05/06 13:44:54;;;;;;;2.95;1.85;;;;;;;;;;5027832;28;20034;-78
2021/05/06 13:47:23;;;;;;;4.28;1.83;;;;;;;;;;5024155;28;20030;-77
2021/05/06 13:49:49;;;;;;;3.95;1.55;;;;;;;;;;5026065;28;20103;-79
2021/05/06 13:52:15;;;;;;;2.72;1.38;;;;;;;;;;5027176;28;20024;-78
2021/05/06 13:54:41;;;;;;;4.38;1.15;;;;;;;;;;5025195;28;20060;-78
2021/05/06 13:57:06;;;;;;;4.75;1.13;;;;;;;;;;5025410;28;20029;-78
2021/05/06 13:59:32;;;;;;;2.83;1.67;;;;;;;;;;5026818;28;20034;-78
2021/05/06 14:01:58;;;;;;;4.07;1.10;;;;;;;;;;5026882;28;20057;-77
2021/05/06 14:04:24;;;;;;;4.32;3.45;;;;;;;;;;5028373;28;20037;-78
2021/05/06 14:06:50;;;;;;;4.25;1.80;;;;;;;;;;5026847;28;20049;-78
2021/05/06 14:09:18;;;;;;;2.72;1.42;;;;;;;;;;5028297;28;20025;-78
2021/05/06 14:14:03;;;;;;;2.20;1.17;;;;;;;;;;5062187;28;20362;-78
2021/05/06 14:16:29;;;;;;;3.20;1.40;;;;;;;;;;5060548;28;20028;-78
2021/05/06 14:18:54;;;;;;;3.00;1.15;;;;;;;;;;5050797;28;20048;-78
2021/05/06 14:21:22;;;;;;;7.20;1.50;;;;;;;;;;5054931;28;20021;-78
2021/05/06 14:23:48;;;;;;;3.05;1.67;;;;;;;;;;5055475;28;20028;-78
2021/05/06 14:26:14;;;;;;;3.75;1.60;;;;;;;;;;5050982;28;20055;-78
2021/05/06 14:28:41;;;;;;;4.45;1.70;;;;;;;;;;5055594;28;20403;-78
2021/05/06 14:31:07;;;;;;;2.85;1.35;;;;;;;;;;5056140;28;20025;-78
2021/05/06 14:33:33;;;;;;;3.42;1.50;;;;;;;;;;5061538;28;20766;-78
2021/05/06 14:35:58;;;;;;;9.73;5.40;;;;;;;;;;5051052;28;20029;-78
2021/05/06 14:38:24;;;;;;;14.55;8.18;;;;;;;;;;5052749;28;20017;-78
2021/05/06 14:40:50;;;;;;;7.00;4.60;;;;;;;;;;5050405;28;20459;-78
2021/05/06 14:43:15;;;;;;;4.40;2.42;;;;;;;;;;5050096;28;20034;-77
2021/05/06 14:48:01;;;;;;;2.80;1.50;;;;;;;;;;5065241;28;20448;-78
2021/05/06 14:50:27;;;;;;;4.15;1.50;;;;;;;;;;5063802;28;20672;-78
2021/05/06 14:52:54;;;;;;;2.40;1.20;;;;;;;;;;5063311;28;20075;-79
2021/05/06 14:55:20;;;;;;;3.22;1.50;;;;;;;;;;5066082;28;20067;-77
2021/05/06 14:57:46;;;;;;;3.58;1.92;;;;;;;;;;5058020;28;20024;-78
2021/05/06 15:00:12;;;;;;;4.18;2.15;;;;;;;;;;5058589;28;20082;-78
2021/05/06 15:02:37;;;;;;;3.42;1.70;;;;;;;;;;5055703;28;20635;-79
2021/05/06 15:05:04;;;;;;;6.43;1.33;;;;;;;;;;5057757;28;20404;-78
2021/05/06 15:07:29;;;;;;;3.58;2.33;;;;;;;;;;5048405;28;20024;-78
2021/05/06 15:09:55;;;;;;;3.47;2.05;;;;;;;;;;5049236;28;20021;-79
2021/05/06 15:12:21;;;;;;;4.55;2.03;;;;;;;;;;5052724;28;20402;-78
2021/05/06 15:14:46;;;;;;;3.60;2.20;;;;;;;;;;5046626;28;20018;-78
2021/05/06 15:17:12;;;;;;;5.35;2.47;;;;;;;;;;5053928;28;20029;-79
2021/05/06 15:19:38;;;;;;;4.68;2.25;;;;;;;;;;5046879;28;20033;-78
2021/05/06 15:22:03;;;;;;;4.88;1.70;;;;;;;;;;5048978;28;20108;-80
2021/05/06 15:24:30;;;;;;;3.55;1.50;;;;;;;;;;5046291;28;20393;-78
2021/05/06 15:26:55;;;;;;;2.67;1.60;;;;;;;;;;5051376;28;20029;-79
2021/05/06 15:29:21;;;;;;;3.40;1.98;;;;;;;;;;5055313;28;20812;-77
2021/05/06 15:31:47;;;;;;;4.13;2.00;;;;;;;;;;5047210;28;20545;-78
2021/05/06 15:34:13;;;;;;;2.95;1.77;;;;;;;;;;5056667;28;20079;-79
2021/05/06 15:36:40;;;;;;;4.85;2.08;;;;;;;;;;5052572;28;20025;-78
2021/05/06 15:39:06;;;;;;;4.00;2.03;;;;;;;;;;5055942;28;20056;-78
2021/05/06 15:41:32;;;;;;;6.15;3.58;;;;;;;;;;5058441;28;20134;-77
2021/05/06 15:43:58;;;;;;;5.18;2.47;;;;;;;;;;5057677;28;20044;-77
2021/05/06 15:46:24;;;;;;;3.72;2.10;;;;;;;;;;5055212;28;20462;-79
2021/05/06 15:48:49;;;;;;;3.55;2.25;;;;;;;;;;5047906;28;20037;-78
2021/05/06 15:51:15;;;;;;;5.45;3.05;;;;;;;;;;5057856;28;20019;-78
2021/05/06 15:53:43;;;;;;;4.28;2.20;;;;;;;;;;5050043;28;20017;-79
2021/05/06 15:56:09;;;;;;;3.28;1.73;;;;;;;;;;5052603;28;20029;-79
2021/05/06 15:58:36;;;;;;;2.92;1.60;;;;;;;;;;5046607;28;20029;-77
2021/05/06 16:01:01;;;;;;;2.80;1.35;;;;;;;;;;5044332;28;20025;-79
2021/05/06 16:03:30;;;;;;;4.30;2.20;;;;;;;;;;5043651;28;20035;-79
2021/05/06 16:05:56;;;;;;;3.22;1.67;;;;;;;;;;5041299;28;20017;-79
2021/05/06 16:08:23;;;;;;;2.92;1.58;;;;;;;;;;5037908;28;20030;-78
2021/05/06 16:10:50;;;;;;;5.10;2.33;;;;;;;;;;5047190;28;20476;-79
2021/05/06 16:13:16;;;;;;;4.43;1.95;;;;;;;;;;5044844;28;20381;-78
2021/05/06 16:15:41;;;;;;;3.40;1.58;;;;;;;;;;5048144;28;20059;-79
2021/05/06 16:18:07;;;;;;;3.08;1.60;;;;;;;;;;5041749;28;20037;-78
2021/05/06 16:20:40;;;;;;;3.08;1.50;;;;;;;;;;5045429;28;20052;-79
2021/05/06 16:23:06;;;;;;;2.88;1.50;;;;;;;;;;5041917;28;20378;-78
2021/05/06 16:25:32;;;;;;;3.08;1.77;;;;;;;;;;5044180;28;20456;-79
2021/05/06 16:27:58;;;;;;;4.50;1.90;;;;;;;;;;5049467;28;20052;-79
2021/05/06 16:30:26;;;;;;;3.88;2.20;;;;;;;;;;5044427;28;20104;-78
2021/05/06 16:32:52;;;;;;;2.78;1.70;;;;;;;;;;5048082;28;20017;-79
2021/05/06 16:35:21;;;;;;;4.03;1.65;;;;;;;;;;5044851;28;20017;-79
2021/05/06 16:38:00;;;;;;;6.13;1.88;;;;;;;;;;5041109;28;20029;-78
2021/05/06 16:45:23;;;;;;;4.47;1.50;;;;;;;;;;5042475;28;20061;-80
2021/05/06 16:47:49;;;;;;;2.95;1.60;;;;;;;;;;5032451;28;20044;-80
2021/05/06 16:50:14;;;;;;;4.55;2.67;;;;;;;;;;5038832;28;20133;-79
2021/05/06 16:52:40;;;;;;;6.32;2.58;;;;;;;;;;5042410;28;20454;-79
2021/05/06 16:55:06;;;;;;;5.47;3.58;;;;;;;;;;5046986;28;20397;-79
2021/05/06 16:57:32;;;;;;;5.85;2.45;;;;;;;;;;5037356;28;20478;-80
2021/05/06 17:02:16;;;;;;;3.50;2.10;;;;;;;;;;5114183;27;20384;-80
2021/05/06 17:04:42;;;;;;;3.65;1.83;;;;;;;;;;5099666;28;20024;-80
2021/05/06 17:07:07;;;;;;;3.28;1.58;;;;;;;;;;5098859;28;20452;-79
2021/05/06 17:09:37;;;;;;;4.43;2.13;;;;;;;;;;5085930;28;20553;-80
2021/05/06 17:12:03;;;;;;;4.35;2.63;;;;;;;;;;5086858;28;20426;-80
2021/05/06 17:14:29;;;;;;;5.47;3.35;;;;;;;;;;5087940;28;20033;-80
2021/05/06 17:16:56;;;;;;;5.55;3.00;;;;;;;;;;5088869;28;20352;-80
2021/05/06 17:19:22;;;;;;;4.45;2.40;;;;;;;;;;5089465;28;20038;-80
2021/05/06 17:21:48;;;;;;;5.00;2.67;;;;;;;;;;5095797;28;20026;-80
2021/05/06 17:24:13;;;;;;;5.03;1.80;;;;;;;;;;5092258;28;20087;-80
2021/05/06 17:26:39;;;;;;;4.10;1.77;;;;;;;;;;5086562;28;20123;-79
2021/05/06 17:29:05;;;;;;;3.35;2.63;;;;;;;;;;5088133;28;20625;-79
2021/05/06 17:31:30;;;;;;;3.65;2.10;;;;;;;;;;5089628;28;20031;-79
2021/05/06 17:33:56;;;;;;;3.50;2.15;;;;;;;;;;5096055;28;20025;-80
2021/05/06 17:36:29;;;;;;;3.33;2.20;;;;;;;;;;5087115;28;20147;-79
2021/05/06 17:38:55;;;;;;;4.72;2.53;;;;;;;;;;5090125;28;20081;-79
2021/05/06 17:41:21;;;;;;;6.15;2.95;;;;;;;;;;5086038;28;20079;-80
2021/05/06 17:43:47;;;;;;;4.43;2.15;;;;;;;;;;5090262;28;20016;-79
2021/05/06 17:46:12;;;;;;;5.25;3.17;;;;;;;;;;5087070;28;20108;-79
2021/05/06 17:48:38;;;;;;;3.78;2.63;;;;;;;;;;5091865;28;20016;-80
2021/05/06 17:51:04;;;;;;;4.28;3.15;;;;;;;;;;5091568;28;20035;-80
2021/05/06 17:53:30;;;;;;;4.57;3.03;;;;;;;;;;5097756;28;20023;-80
2021/05/06 17:55:55;;;;;;;9.77;5.22;;;;;;;;;;5087541;28;20058;-79
2021/05/06 17:58:21;;;;;;;5.93;3.83;;;;;;;;;;5086621;28;20099;-79
2021/05/06 18:00:47;;;;;;;5.18;3.28;;;;;;;;;;5090223;28;20130;-80
2021/05/06 18:03:12;;;;;;;6.78;3.70;;;;;;;;;;5086292;28;20021;-80
2021/05/06 18:05:38;;;;;;;5.25;3.10;;;;;;;;;;5094810;28;20096;-80
2021/05/06 18:08:04;;;;;;;4.45;3.13;;;;;;;;;;5091086;28;20016;-80
2021/05/06 18:10:46;;;;;;;5.38;3.60;;;;;;;;;;5093533;28;20522;-80
2021/05/06 18:13:11;;;;;;;9.50;3.88;;;;;;;;;;5080637;27;20030;-80
2021/05/06 18:15:37;;;;;;;5.30;3.17;;;;;;;;;;5075390;28;20776;-80
2021/05/06 18:18:03;;;;;;;7.13;3.13;;;;;;;;;;5067835;28;20024;-80
2021/05/06 18:20:28;;;;;;;3.78;2.20;;;;;;;;;;5079285;28;20076;-81
2021/05/06 18:22:54;;;;;;;4.40;1.95;;;;;;;;;;5069583;28;20089;-80
2021/05/06 18:25:20;;;;;;;3.75;2.10;;;;;;;;;;5069961;28;20392;-79
2021/05/06 18:27:46;;;;;;;3.20;1.60;;;;;;;;;;5076120;28;20016;-80
2021/05/06 18:30:15;;;;;;;2.95;1.80;;;;;;;;;;5066056;28;20032;-80
2021/05/06 18:32:41;;;;;;;3.15;1.90;;;;;;;;;;5074703;28;20538;-80
2021/05/06 18:35:08;;;;;;;2.97;1.80;;;;;;;;;;5068155;28;20085;-80
2021/05/06 18:37:35;;;;;;;5.63;2.05;;;;;;;;;;5075213;28;20108;-80
2021/05/06 18:40:01;;;;;;;6.30;4.20;;;;;;;;;;5080761;28;20059;-79
2021/05/06 18:42:27;;;;;;;6.20;4.03;;;;;;;;;;5074306;28;20467;-80
2021/05/06 18:44:52;;;;;;;7.65;5.70;;;;;;;;;;5075149;28;20035;-79
2021/05/06 18:47:24;;;;;;;8.20;5.82;;;;;;;;;;5078511;28;20032;-80
2021/05/06 18:49:53;;;;;;;7.70;4.50;;;;;;;;;;5074394;28;20020;-79
2021/05/06 18:52:19;;;;;;;7.10;4.70;;;;;;;;;;5065781;28;20036;-80
2021/05/06 18:54:45;;;;;;;4.82;3.13;;;;;;;;;;5069662;28;20028;-80
2021/05/06 18:57:11;;;;;;;5.40;2.67;;;;;;;;;;5068345;28;20039;-80
2021/05/06 18:59:37;;;;;;;3.95;2.35;;;;;;;;;;5066757;28;20445;-80
2021/05/06 19:02:02;;;;;;;3.10;1.88;;;;;;;;;;5066198;28;20020;-81
2021/05/06 19:04:28;;;;;;;3.65;1.80;;;;;;;;;;5063634;28;20623;-80
2021/05/06 19:06:54;;;;;;;3.95;1.73;;;;;;;;;;5071482;28;20069;-81
2021/05/06 19:09:20;;;;;;;3.35;1.50;;;;;;;;;;5077508;28;20107;-80
2021/05/06 19:11:46;;;;;;;3.28;1.67;;;;;;;;;;5080192;28;20036;-80
2021/05/06 19:14:13;;;;;;;3.03;1.50;;;;;;;;;;5078257;28;20036;-80
2021/05/06 19:16:39;;;;;;;3.45;1.60;;;;;;;;;;5072491;28;20032;-79
2021/05/06 19:19:05;;;;;;;9.02;1.85;;;;;;;;;;5085253;28;20035;-80
2021/05/06 19:21:31;;;;;;;3.17;1.60;;;;;;;;;;5083076;28;20024;-80
2021/05/06 19:23:57;;;;;;;3.95;1.90;;;;;;;;;;5073108;28;20512;-80
2021/05/06 19:26:32;;;;;;;5.82;2.03;;;;;;;;;;5073506;28;20087;-80
2021/05/06 19:28:58;;;;;;;4.35;2.53;;;;;;;;;;5072339;28;20016;-79
2021/05/06 19:31:24;;;;;;;3.92;2.38;;;;;;;;;;5073180;28;20020;-80
2021/05/06 19:33:50;;;;;;;4.00;2.10;;;;;;;;;;5076688;28;20043;-80
2021/05/06 19:36:16;;;;;;;4.32;2.83;;;;;;;;;;5070380;28;20046;-79
2021/05/06 19:38:44;;;;;;;2.70;1.65;;;;;;;;;;5073512;28;20028;-80
2021/05/06 19:41:10;;;;;;;3.50;2.20;;;;;;;;;;5073387;28;20050;-79
2021/05/06 19:43:43;;;;;;;3.25;2.20;;;;;;;;;;5075026;28;20523;-79
2021/05/06 19:49:06;;;;;;;3.80;2.40;;;;;;;;;;5044076;28;20039;-78
2021/05/06 19:51:32;;;;;;;4.22;2.22;;;;;;;;;;5075489;28;20824;-78
2021/05/06 19:53:58;;;;;;;3.20;1.90;;;;;;;;;;5062561;28;20062;-78
2021/05/06 19:56:24;;;;;;;3.88;1.90;;;;;;;;;;5063500;28;20548;-80
2021/05/06 20:01:08;;;;;;;2.95;1.92;;;;;;;;;;5104865;27;20375;-81
2021/05/06 20:03:34;;;;;;;3.17;2.22;;;;;;;;;;5108448;28;20502;-79
2021/05/06 20:06:00;;;;;;;4.90;2.25;;;;;;;;;;5110111;28;20057;-79
2021/05/06 20:08:26;;;;;;;3.83;2.20;;;;;;;;;;5100495;28;20019;-81
2021/05/06 20:10:51;;;;;;;8.32;4.25;;;;;;;;;;5098326;27;19916;-81
2021/05/06 20:13:17;;;;;;;6.45;2.92;;;;;;;;;;5095655;28;20032;-78
2021/05/06 20:15:44;;;;;;;6.78;3.42;;;;;;;;;;5100906;28;20038;-81
2021/05/06 20:18:11;;;;;;;15.00;8.73;;;;;;;;;;5102923;28;20027;-80
2021/05/06 20:20:50;;;;;;;8.38;4.75;;;;;;;;;;5104391;28;20016;-79
2021/05/06 20:23:16;;;;;;;6.80;3.78;;;;;;;;;;5101449;28;20067;-79
2021/05/06 20:25:42;;;;;;;3.03;1.60;;;;;;;;;;5104449;28;20083;-78
2021/05/06 20:28:07;;;;;;;2.97;1.75;;;;;;;;;;5102738;28;20510;-79
2021/05/06 20:30:33;;;;;;;3.30;1.85;;;;;;;;;;5105167;28;20024;-80
2021/05/06 20:32:59;;;;;;;8.70;4.68;;;;;;;;;;5099443;28;20039;-78
2021/05/06 20:37:58;;;;;;;2.60;1.30;;;;;;;;;;5111290;27;20355;-78
2021/05/06 20:40:24;;;;;;;1.90;1.00;;;;;;;;;;5097622;28;20674;-80
2021/05/06 20:42:59;;;;;;;2.70;1.40;;;;;;;;;;5101540;28;20051;-79
2021/05/06 20:45:26;;;;;;;2.60;1.40;;;;;;;;;;5106023;28;20020;-81
2021/05/06 20:47:52;;;;;;;3.22;1.95;;;;;;;;;;5102655;28;20032;-81